Gsp Alcor — 9V8448 — position and weather

sailwx.info

Track history (hours):
 
Tides and Currents Weather Stations Pressure Air Temp Water Temp Dewpoint Dewpoint Depression Visibility Wind Speed Wind Dir Waves Ship Positions

Gsp Alcor

Last reported at 2017-Dec-11 17:00 UTC. Time now 2017-Dec-14 06:29 UTC.
Position N 44°31' E 029°28'.

Length 59 m; draft 4.8 m.

Type: Ship. MMSI: 565543000.

Date/timePositionNaut miles runAvg speedWind from/ knotsBaromVisibWave heightAir tempDewpointWater temp
2017-Dec-11 17:00N 44°31' E 029°28'3 5.5
2017-Dec-11 16:30N 44°31' E 029°32'2 1.9
2017-Dec-11 15:43N 44°31' E 029°34'0 0.4
2017-Dec-11 15:30N 44°32' E 029°34'4 6.5
2017-Dec-11 14:56N 44°34' E 029°30'3 7.0
2017-Dec-11 14:30N 44°35' E 029°26'3 2.9
2017-Dec-11 13:18N 44°38' E 029°23'2 7.2
2017-Dec-11 12:59N 44°39' E 029°21'3 6.9
2017-Dec-11 12:30N 44°42' E 029°18'1 0.8
2017-Dec-11 10:33N 44°43' E 029°16'0 0.1
2017-Dec-11 10:30N 44°43' E 029°16'0 0.0
2017-Dec-11 10:00N 44°43' E 029°16'0 0.0
2017-Dec-11 09:30N 44°43' E 029°16'0 0.0
2017-Dec-11 08:57N 44°43' E 029°16'0 0.0
2017-Dec-11 08:30N 44°43' E 029°16'0 0.0
2017-Dec-11 07:57N 44°43' E 029°16'0 0.0
2017-Dec-11 07:03N 44°43' E 029°16'0 0.0
2017-Dec-11 06:42N 44°43' E 029°16'0 0.0
2017-Dec-11 01:30N 44°43' E 029°16'0 0.0
2017-Dec-10 15:54N 44°43' E 029°16'0 0.0
2017-Dec-10 15:30N 44°43' E 029°16'0 0.0
2017-Dec-10 03:54N 44°43' E 029°16'0 0.0
2017-Dec-10 01:18N 44°43' E 029°16'0 0.0
2017-Dec-09 22:11N 44°43' E 029°16'0 0.1
2017-Dec-09 21:59N 44°43' E 029°16'0 0.0
2017-Dec-09 21:17N 44°43' E 029°16'0 0.0
2017-Dec-09 20:41N 44°43' E 029°16'0 0.1
2017-Dec-09 20:29N 44°43' E 029°16'0 0.0
2017-Dec-09 19:59N 44°43' E 029°16'0 0.0
2017-Dec-09 19:26N 44°43' E 029°16'0 0.0
2017-Dec-09 18:59N 44°43' E 029°16'0 0.0
2017-Dec-09 18:29N 44°43' E 029°16'0 0.0
2017-Dec-09 17:59N 44°43' E 029°16'0 0.2
2017-Dec-09 17:30N 44°43' E 029°16'2 5.0
2017-Dec-09 17:00N 44°41' E 029°18'3 6.6
2017-Dec-09 16:30N 44°38' E 029°21'3 6.7
2017-Dec-09 16:00N 44°35' E 029°23'3 6.7
2017-Dec-09 15:30N 44°32' E 029°26'3 5.5
2017-Dec-09 15:00N 44°30' E 029°28'3 5.4
2017-Dec-09 14:26N 44°31' E 029°32'1 2.5
2017-Dec-09 13:51N 44°31' E 029°34'1 3.3
2017-Dec-09 13:28N 44°33' E 029°33'3 6.3
2017-Dec-09 13:00N 44°34' E 029°29'3 6.2
2017-Dec-09 12:31N 44°35' E 029°25'0 0.1
2017-Dec-09 11:59N 44°35' E 029°25'2 2.9
2017-Dec-09 11:24N 44°34' E 029°27'3 6.3
2017-Dec-09 11:00N 44°33' E 029°30'1 1.4
2017-Dec-09 09:57N 44°32' E 029°32'5 6.8
2017-Dec-09 09:14N 44°35' E 029°26'1 2.3
2017-Dec-09 08:59N 44°35' E 029°25'0 0.2
2017-Dec-09 08:18N 44°35' E 029°25'0 0.8
2017-Dec-09 07:53N 44°35' E 029°26'0 0.0
2017-Dec-09 06:59N 44°35' E 029°25'1 1.2
2017-Dec-09 06:28N 44°36' E 029°25'2 4.8
2017-Dec-09 05:59N 44°36' E 029°22'0 0.2
2017-Dec-09 05:30N 44°36' E 029°22'2 4.7
2017-Dec-09 05:01N 44°37' E 029°25'0 0.3
2017-Dec-09 04:29N 44°37' E 029°25'0 0.0
2017-Dec-09 03:59N 44°37' E 029°25'0 0.0
2017-Dec-09 03:26N 44°37' E 029°25'0 0.0
2017-Dec-09 02:59N 44°37' E 029°25'0 0.0
2017-Dec-09 02:29N 44°37' E 029°25'0 0.0
2017-Dec-09 01:53N 44°37' E 029°25'0 0.0
2017-Dec-09 01:29N 44°37' E 029°25'0 0.0
2017-Dec-09 00:59N 44°37' E 029°25'0 0.0
2017-Dec-09 00:29N 44°37' E 029°25'0 0.0
2017-Dec-08 23:59N 44°37' E 029°25'0 0.0
2017-Dec-08 23:29N 44°37' E 029°25'0 0.0
2017-Dec-08 22:56N 44°37' E 029°25'1 2.8
2017-Dec-08 22:27N 44°36' E 029°24'2 3.5
2017-Dec-08 22:00N 44°35' E 029°25'0 0.0
2017-Dec-08 21:31N 44°35' E 029°25'0 0.0
2017-Dec-08 21:01N 44°35' E 029°25'0 0.1
2017-Dec-08 20:30N 44°35' E 029°25'1 1.5
2017-Dec-08 20:01N 44°35' E 029°26'3 6.5
2017-Dec-08 19:31N 44°33' E 029°30'2 4.2
2017-Dec-08 19:01N 44°32' E 029°33'1 2.2
2017-Dec-08 18:31N 44°32' E 029°31'3 6.6
2017-Dec-08 18:01N 44°33' E 029°27'0 0.0
2017-Dec-08 17:12N 44°33' E 029°27'0 0.7
2017-Dec-08 17:00N 44°33' E 029°27'0 0.3
2017-Dec-08 16:30N 44°33' E 029°27'0 0.0
2017-Dec-08 16:00N 44°33' E 029°27'0 0.1
2017-Dec-08 15:30N 44°33' E 029°27'1 2.4
2017-Dec-08 15:00N 44°32' E 029°28'0 0.0
2017-Dec-08 14:30N 44°32' E 029°28'0 0.0
2017-Dec-08 14:00N 44°32' E 029°28'0 0.1
2017-Dec-08 13:30N 44°32' E 029°28'2 3.8
2017-Dec-08 13:00N 44°32' E 029°31'2 0.7
2017-Dec-08 10:46N 44°32' E 029°33'0 0.0
2017-Dec-08 10:29N 44°32' E 029°33'0 0.0
2017-Dec-08 09:59N 44°32' E 029°33'0 0.6
2017-Dec-08 09:30N 44°32' E 029°33'1 0.4
2017-Dec-08 07:59N 44°31' E 029°34'0 0.1
2017-Dec-08 06:55N 44°31' E 029°34'1 3.0
2017-Dec-08 06:31N 44°32' E 029°32'4 7.7
2017-Dec-08 06:00N 44°34' E 029°28'2 4.1
2017-Dec-08 05:30N 44°35' E 029°25'10 6.2
2017-Dec-08 03:55N 44°27' E 029°16'7 7.6
2017-Dec-08 03:00N 44°22' E 029°10'4 8.3
2017-Dec-08 02:30N 44°19' E 029°06'4 8.9
2017-Dec-08 02:01N 44°16' E 029°02'5 9.1
2017-Dec-08 01:31N 44°13' E 028°58'5 9.1
2017-Dec-08 01:01N 44°09' E 028°53'5 9.1
2017-Dec-08 00:31N 44°06' E 028°48'4 8.4
2017-Dec-08 00:01N 44°06' E 028°42'3 6.9
2017-Dec-07 23:30N 44°09' E 028°40'1 1.8
2017-Dec-07 23:00N 44°10' E 028°39'0 0.0
2017-Dec-07 22:30N 44°10' E 028°39'0 0.0
2017-Dec-07 22:00N 44°10' E 028°39'0 0.0
2017-Dec-07 21:30N 44°10' E 028°39'0 0.0
2017-Dec-07 21:00N 44°10' E 028°39'0 0.0
2017-Dec-07 20:30N 44°10' E 028°39'0 0.0
2017-Dec-07 20:00N 44°10' E 028°39'0 0.0
2017-Dec-07 19:30N 44°10' E 028°39'0 0.0
2017-Dec-07 19:00N 44°10' E 028°39'0 0.0
2017-Dec-07 18:30N 44°10' E 028°39'0 0.0
2017-Dec-07 18:00N 44°10' E 028°39'0 0.0
2017-Dec-07 17:30N 44°10' E 028°39'0 0.0
2017-Dec-07 17:00N 44°10' E 028°39'0 0.0
2017-Dec-07 16:30N 44°10' E 028°39'0 0.0
2017-Dec-07 16:00N 44°10' E 028°39'0 0.0
2017-Dec-07 15:30N 44°10' E 028°39'0 0.0
2017-Dec-07 15:00N 44°10' E 028°39'0 0.0
2017-Dec-07 14:30N 44°10' E 028°39'0 0.0
2017-Dec-07 14:00N 44°10' E 028°39'0 0.0
2017-Dec-07 13:30N 44°10' E 028°39'0 0.0
2017-Dec-07 13:00N 44°10' E 028°39'0 0.0
2017-Dec-07 12:30N 44°10' E 028°39'1 1.1
2017-Dec-07 12:00N 44°09' E 028°39'4 7.4
2017-Dec-07 11:30N 44°06' E 028°42'4 7.4
2017-Dec-07 11:00N 44°06' E 028°47'4 8.1
2017-Dec-07 10:30N 44°08' E 028°53'4 8.6
2017-Dec-07 10:00N 44°11' E 028°57'5 9.3
2017-Dec-07 09:30N 44°14' E 029°02'5 9.3
2017-Dec-07 09:00N 44°18' E 029°06'5 9.4
2017-Dec-07 08:30N 44°21' E 029°11'5 9.4
2017-Dec-07 08:00N 44°24' E 029°15'5 9.5
2017-Dec-07 07:26N 44°28' E 029°20'4 8.6
2017-Dec-07 06:56N 44°31' E 029°25'2 5.7
2017-Dec-07 06:30N 44°32' E 029°28'3 6.0
2017-Dec-07 05:56N 44°31' E 029°33'1 1.2
2017-Dec-07 05:04N 44°31' E 029°34'0 1.5
2017-Dec-07 05:00N 44°31' E 029°34'1 1.8
2017-Dec-07 04:21N 44°33' E 029°34'1 0.4
2017-Dec-07 01:41N 44°32' E 029°33'1 5.5
2017-Dec-07 01:29N 44°32' E 029°31'4 7.7
2017-Dec-07 01:00N 44°34' E 029°27'1 3.0
2017-Dec-07 00:30N 44°35' E 029°25'0 0.0
2017-Dec-07 00:00N 44°35' E 029°25'  
2017-Dec-04 10:05N 44°33' E 029°27'0 0.4
2017-Dec-04 09:54N 44°33' E 029°27'1 3.4
2017-Dec-04 09:29N 44°32' E 029°29'5 0.3
2017-Dec-03 18:47N 44°29' E 029°34'2 6.2
2017-Dec-03 18:30N 44°31' E 029°33'1 1.4
2017-Dec-03 17:56N 44°32' E 029°33'0 0.0
2017-Dec-03 17:28N 44°32' E 029°33'1 0.5
2017-Dec-03 15:50N 44°32' E 029°32'2 6.3
2017-Dec-03 15:30N 44°32' E 029°29'2 3.3
2017-Dec-03 15:01N 44°33' E 029°27'0 0.1
2017-Dec-03 14:30N 44°33' E 029°27'0 0.0
2017-Dec-03 14:00N 44°33' E 029°27'0 0.1
2017-Dec-03 13:30N 44°33' E 029°27'0 0.1
2017-Dec-03 12:58N 44°33' E 029°27'3 6.0
2017-Dec-03 12:28N 44°34' E 029°23'2 3.2
2017-Dec-03 11:52N 44°36' E 029°22'0 0.0
2017-Dec-03 11:30N 44°36' E 029°22'4 4.6
2017-Dec-03 10:33N 44°33' E 029°27'0 5.9
2017-Dec-03 10:30N 44°33' E 029°27'2 1.5
2017-Dec-03 09:27N 44°32' E 029°28'0 0.2
2017-Dec-03 08:45N 44°32' E 029°28'0 0.3
2017-Dec-03 08:29N 44°32' E 029°28'4 1.5
2017-Dec-03 05:34N 44°31' E 029°34'0 0.0
2017-Dec-02 14:37N 44°31' E 029°34'0 0.2
2017-Dec-02 14:24N 44°31' E 029°34'2 2.8
2017-Dec-02 13:49N 44°30' E 029°35'0 0.1
2017-Dec-02 13:22N 44°30' E 029°35'0 0.0
2017-Dec-02 12:49N 44°30' E 029°35'0 0.0
2017-Dec-02 12:28N 44°30' E 029°35'0 0.0
2017-Dec-02 11:58N 44°30' E 029°35'0 0.1
2017-Dec-02 11:28N 44°30' E 029°35'0 0.0
2017-Dec-02 10:55N 44°30' E 029°35'0 0.0
2017-Dec-02 10:28N 44°30' E 029°35'0 0.0
2017-Dec-02 09:58N 44°30' E 029°35'0 0.0
2017-Dec-02 09:01N 44°30' E 029°35'0 0.1
2017-Dec-02 08:58N 44°30' E 029°35'0 0.0
2017-Dec-02 08:28N 44°30' E 029°35'0 0.0
2017-Dec-02 07:37N 44°30' E 029°35'0 0.7
2017-Dec-02 07:28N 44°30' E 029°35'1 3.1
2017-Dec-02 07:00N 44°31' E 029°34'1 2.0
2017-Dec-02 06:30N 44°32' E 029°33'0 0.0
2017-Dec-02 06:00N 44°32' E 029°33'14 5.1
2017-Dec-02 03:16N 44°25' E 029°15'4 7.4
2017-Dec-02 02:45N 44°23' E 029°12'2 7.5
2017-Dec-02 02:30N 44°21' E 029°10'4 7.4
2017-Dec-02 02:01N 44°19' E 029°06'4 7.3
2017-Dec-02 01:30N 44°16' E 029°02'4 7.4
2017-Dec-02 01:01N 44°14' E 028°59'4 7.2
2017-Dec-02 00:30N 44°11' E 028°55'4 7.2
2017-Dec-02 00:00N 44°08' E 028°52'4 7.1
2017-Dec-01 23:30N 44°06' E 028°48'3 6.8
2017-Dec-01 23:00N 44°06' E 028°44'3 6.6
2017-Dec-01 22:30N 44°08' E 028°41'2 3.8
2017-Dec-01 22:00N 44°10' E 028°39'0 0.3
2017-Dec-01 21:29N 44°10' E 028°39'0 0.0
2017-Dec-01 20:59N 44°10' E 028°39'0 0.0
2017-Dec-01 20:29N 44°10' E 028°39'0 0.0
2017-Dec-01 19:59N 44°10' E 028°39'0 0.0
2017-Dec-01 19:29N 44°10' E 028°39'0 0.0
2017-Dec-01 18:59N 44°10' E 028°39'0 0.0
2017-Dec-01 18:29N 44°10' E 028°39'0 0.0
2017-Dec-01 17:59N 44°10' E 028°39'0 0.0
2017-Dec-01 17:28N 44°10' E 028°39'  
Track history (hours):
 
Tides and Currents Weather Stations Pressure Air Temp Water Temp Dewpoint Dewpoint Depression Visibility Wind Speed Wind Dir Waves Ship Positions

Gsp Alcor

Last reported at 2017-Dec-11 17:00 UTC. Time now 2017-Dec-14 06:29 UTC.
Position N 44°31' E 029°28'.

Length 59 m; draft 4.8 m.

Type: Ship. MMSI: 565543000.

Date/timePositionNaut miles runAvg speedWind from/ knotsBaromVisibWave heightAir tempDewpointWater temp
2017-Dec-11 17:00N 44°31' E 029°28'3 5.5
2017-Dec-11 16:30N 44°31' E 029°32'2 1.9
2017-Dec-11 15:43N 44°31' E 029°34'0 0.4
2017-Dec-11 15:30N 44°32' E 029°34'4 6.5
2017-Dec-11 14:56N 44°34' E 029°30'3 7.0
2017-Dec-11 14:30N 44°35' E 029°26'3 2.9
2017-Dec-11 13:18N 44°38' E 029°23'2 7.2
2017-Dec-11 12:59N 44°39' E 029°21'3 6.9
2017-Dec-11 12:30N 44°42' E 029°18'1 0.8
2017-Dec-11 10:33N 44°43' E 029°16'0 0.1
2017-Dec-11 10:30N 44°43' E 029°16'0 0.0
2017-Dec-11 10:00N 44°43' E 029°16'0 0.0
2017-Dec-11 09:30N 44°43' E 029°16'0 0.0
2017-Dec-11 08:57N 44°43' E 029°16'0 0.0
2017-Dec-11 08:30N 44°43' E 029°16'0 0.0
2017-Dec-11 07:57N 44°43' E 029°16'0 0.0
2017-Dec-11 07:03N 44°43' E 029°16'0 0.0
2017-Dec-11 06:42N 44°43' E 029°16'0 0.0
2017-Dec-11 01:30N 44°43' E 029°16'0 0.0
2017-Dec-10 15:54N 44°43' E 029°16'0 0.0
2017-Dec-10 15:30N 44°43' E 029°16'0 0.0
2017-Dec-10 03:54N 44°43' E 029°16'0 0.0
2017-Dec-10 01:18N 44°43' E 029°16'0 0.0
2017-Dec-09 22:11N 44°43' E 029°16'0 0.1
2017-Dec-09 21:59N 44°43' E 029°16'0 0.0
2017-Dec-09 21:17N 44°43' E 029°16'0 0.0
2017-Dec-09 20:41N 44°43' E 029°16'0 0.1
2017-Dec-09 20:29N 44°43' E 029°16'0 0.0
2017-Dec-09 19:59N 44°43' E 029°16'0 0.0
2017-Dec-09 19:26N 44°43' E 029°16'0 0.0
2017-Dec-09 18:59N 44°43' E 029°16'0 0.0
2017-Dec-09 18:29N 44°43' E 029°16'0 0.0
2017-Dec-09 17:59N 44°43' E 029°16'0 0.2
2017-Dec-09 17:30N 44°43' E 029°16'2 5.0
2017-Dec-09 17:00N 44°41' E 029°18'3 6.6
2017-Dec-09 16:30N 44°38' E 029°21'3 6.7
2017-Dec-09 16:00N 44°35' E 029°23'3 6.7
2017-Dec-09 15:30N 44°32' E 029°26'3 5.5
2017-Dec-09 15:00N 44°30' E 029°28'3 5.4
2017-Dec-09 14:26N 44°31' E 029°32'1 2.5
2017-Dec-09 13:51N 44°31' E 029°34'1 3.3
2017-Dec-09 13:28N 44°33' E 029°33'3 6.3
2017-Dec-09 13:00N 44°34' E 029°29'3 6.2
2017-Dec-09 12:31N 44°35' E 029°25'0 0.1
2017-Dec-09 11:59N 44°35' E 029°25'2 2.9
2017-Dec-09 11:24N 44°34' E 029°27'3 6.3
2017-Dec-09 11:00N 44°33' E 029°30'1 1.4
2017-Dec-09 09:57N 44°32' E 029°32'5 6.8
2017-Dec-09 09:14N 44°35' E 029°26'1 2.3
2017-Dec-09 08:59N 44°35' E 029°25'0 0.2
2017-Dec-09 08:18N 44°35' E 029°25'0 0.8
2017-Dec-09 07:53N 44°35' E 029°26'0 0.0
2017-Dec-09 06:59N 44°35' E 029°25'1 1.2
2017-Dec-09 06:28N 44°36' E 029°25'2 4.8
2017-Dec-09 05:59N 44°36' E 029°22'0 0.2
2017-Dec-09 05:30N 44°36' E 029°22'2 4.7
2017-Dec-09 05:01N 44°37' E 029°25'0 0.3
2017-Dec-09 04:29N 44°37' E 029°25'0 0.0
2017-Dec-09 03:59N 44°37' E 029°25'0 0.0
2017-Dec-09 03:26N 44°37' E 029°25'0 0.0
2017-Dec-09 02:59N 44°37' E 029°25'0 0.0
2017-Dec-09 02:29N 44°37' E 029°25'0 0.0
2017-Dec-09 01:53N 44°37' E 029°25'0 0.0
2017-Dec-09 01:29N 44°37' E 029°25'0 0.0
2017-Dec-09 00:59N 44°37' E 029°25'0 0.0
2017-Dec-09 00:29N 44°37' E 029°25'0 0.0
2017-Dec-08 23:59N 44°37' E 029°25'0 0.0
2017-Dec-08 23:29N 44°37' E 029°25'0 0.0
2017-Dec-08 22:56N 44°37' E 029°25'1 2.8
2017-Dec-08 22:27N 44°36' E 029°24'2 3.5
2017-Dec-08 22:00N 44°35' E 029°25'0 0.0
2017-Dec-08 21:31N 44°35' E 029°25'0 0.0
2017-Dec-08 21:01N 44°35' E 029°25'0 0.1
2017-Dec-08 20:30N 44°35' E 029°25'1 1.5
2017-Dec-08 20:01N 44°35' E 029°26'3 6.5
2017-Dec-08 19:31N 44°33' E 029°30'2 4.2
2017-Dec-08 19:01N 44°32' E 029°33'1 2.2
2017-Dec-08 18:31N 44°32' E 029°31'3 6.6
2017-Dec-08 18:01N 44°33' E 029°27'0 0.0
2017-Dec-08 17:12N 44°33' E 029°27'0 0.7
2017-Dec-08 17:00N 44°33' E 029°27'0 0.3
2017-Dec-08 16:30N 44°33' E 029°27'0 0.0
2017-Dec-08 16:00N 44°33' E 029°27'0 0.1
2017-Dec-08 15:30N 44°33' E 029°27'1 2.4
2017-Dec-08 15:00N 44°32' E 029°28'0 0.0
2017-Dec-08 14:30N 44°32' E 029°28'0 0.0
2017-Dec-08 14:00N 44°32' E 029°28'0 0.1
2017-Dec-08 13:30N 44°32' E 029°28'2 3.8
2017-Dec-08 13:00N 44°32' E 029°31'2 0.7
2017-Dec-08 10:46N 44°32' E 029°33'0 0.0
2017-Dec-08 10:29N 44°32' E 029°33'0 0.0
2017-Dec-08 09:59N 44°32' E 029°33'0 0.6
2017-Dec-08 09:30N 44°32' E 029°33'1 0.4
2017-Dec-08 07:59N 44°31' E 029°34'0 0.1
2017-Dec-08 06:55N 44°31' E 029°34'1 3.0
2017-Dec-08 06:31N 44°32' E 029°32'4 7.7
2017-Dec-08 06:00N 44°34' E 029°28'2 4.1
2017-Dec-08 05:30N 44°35' E 029°25'10 6.2
2017-Dec-08 03:55N 44°27' E 029°16'7 7.6
2017-Dec-08 03:00N 44°22' E 029°10'4 8.3
2017-Dec-08 02:30N 44°19' E 029°06'4 8.9
2017-Dec-08 02:01N 44°16' E 029°02'5 9.1
2017-Dec-08 01:31N 44°13' E 028°58'5 9.1
2017-Dec-08 01:01N 44°09' E 028°53'5 9.1
2017-Dec-08 00:31N 44°06' E 028°48'4 8.4
2017-Dec-08 00:01N 44°06' E 028°42'3 6.9
2017-Dec-07 23:30N 44°09' E 028°40'1 1.8
2017-Dec-07 23:00N 44°10' E 028°39'0 0.0
2017-Dec-07 22:30N 44°10' E 028°39'0 0.0
2017-Dec-07 22:00N 44°10' E 028°39'0 0.0
2017-Dec-07 21:30N 44°10' E 028°39'0 0.0
2017-Dec-07 21:00N 44°10' E 028°39'0 0.0
2017-Dec-07 20:30N 44°10' E 028°39'0 0.0
2017-Dec-07 20:00N 44°10' E 028°39'0 0.0
2017-Dec-07 19:30N 44°10' E 028°39'0 0.0
2017-Dec-07 19:00N 44°10' E 028°39'0 0.0
2017-Dec-07 18:30N 44°10' E 028°39'0 0.0
2017-Dec-07 18:00N 44°10' E 028°39'0 0.0
2017-Dec-07 17:30N 44°10' E 028°39'0 0.0
2017-Dec-07 17:00N 44°10' E 028°39'0 0.0
2017-Dec-07 16:30N 44°10' E 028°39'0 0.0
2017-Dec-07 16:00N 44°10' E 028°39'0 0.0
2017-Dec-07 15:30N 44°10' E 028°39'0 0.0
2017-Dec-07 15:00N 44°10' E 028°39'0 0.0
2017-Dec-07 14:30N 44°10' E 028°39'0 0.0
2017-Dec-07 14:00N 44°10' E 028°39'0 0.0
2017-Dec-07 13:30N 44°10' E 028°39'0 0.0
2017-Dec-07 13:00N 44°10' E 028°39'0 0.0
2017-Dec-07 12:30N 44°10' E 028°39'1 1.1
2017-Dec-07 12:00N 44°09' E 028°39'4 7.4
2017-Dec-07 11:30N 44°06' E 028°42'4 7.4
2017-Dec-07 11:00N 44°06' E 028°47'4 8.1
2017-Dec-07 10:30N 44°08' E 028°53'4 8.6
2017-Dec-07 10:00N 44°11' E 028°57'5 9.3
2017-Dec-07 09:30N 44°14' E 029°02'5 9.3
2017-Dec-07 09:00N 44°18' E 029°06'5 9.4
2017-Dec-07 08:30N 44°21' E 029°11'5 9.4
2017-Dec-07 08:00N 44°24' E 029°15'5 9.5
2017-Dec-07 07:26N 44°28' E 029°20'4 8.6
2017-Dec-07 06:56N 44°31' E 029°25'2 5.7
2017-Dec-07 06:30N 44°32' E 029°28'3 6.0
2017-Dec-07 05:56N 44°31' E 029°33'1 1.2
2017-Dec-07 05:04N 44°31' E 029°34'0 1.5
2017-Dec-07 05:00N 44°31' E 029°34'1 1.8
2017-Dec-07 04:21N 44°33' E 029°34'1 0.4
2017-Dec-07 01:41N 44°32' E 029°33'1 5.5
2017-Dec-07 01:29N 44°32' E 029°31'4 7.7
2017-Dec-07 01:00N 44°34' E 029°27'1 3.0
2017-Dec-07 00:30N 44°35' E 029°25'0 0.0
2017-Dec-07 00:00N 44°35' E 029°25'  
2017-Dec-04 10:05N 44°33' E 029°27'0 0.4
2017-Dec-04 09:54N 44°33' E 029°27'1 3.4
2017-Dec-04 09:29N 44°32' E 029°29'5 0.3
2017-Dec-03 18:47N 44°29' E 029°34'2 6.2
2017-Dec-03 18:30N 44°31' E 029°33'1 1.4
2017-Dec-03 17:56N 44°32' E 029°33'0 0.0
2017-Dec-03 17:28N 44°32' E 029°33'1 0.5
2017-Dec-03 15:50N 44°32' E 029°32'2 6.3
2017-Dec-03 15:30N 44°32' E 029°29'2 3.3
2017-Dec-03 15:01N 44°33' E 029°27'0 0.1
2017-Dec-03 14:30N 44°33' E 029°27'0 0.0
2017-Dec-03 14:00N 44°33' E 029°27'0 0.1
2017-Dec-03 13:30N 44°33' E 029°27'0 0.1
2017-Dec-03 12:58N 44°33' E 029°27'3 6.0
2017-Dec-03 12:28N 44°34' E 029°23'2 3.2
2017-Dec-03 11:52N 44°36' E 029°22'0 0.0
2017-Dec-03 11:30N 44°36' E 029°22'4 4.6
2017-Dec-03 10:33N 44°33' E 029°27'0 5.9
2017-Dec-03 10:30N 44°33' E 029°27'2 1.5
2017-Dec-03 09:27N 44°32' E 029°28'0 0.2
2017-Dec-03 08:45N 44°32' E 029°28'0 0.3
2017-Dec-03 08:29N 44°32' E 029°28'4 1.5
2017-Dec-03 05:34N 44°31' E 029°34'0 0.0
2017-Dec-02 14:37N 44°31' E 029°34'0 0.2
2017-Dec-02 14:24N 44°31' E 029°34'2 2.8
2017-Dec-02 13:49N 44°30' E 029°35'0 0.1
2017-Dec-02 13:22N 44°30' E 029°35'0 0.0
2017-Dec-02 12:49N 44°30' E 029°35'0 0.0
2017-Dec-02 12:28N 44°30' E 029°35'0 0.0
2017-Dec-02 11:58N 44°30' E 029°35'0 0.1
2017-Dec-02 11:28N 44°30' E 029°35'0 0.0
2017-Dec-02 10:55N 44°30' E 029°35'0 0.0
2017-Dec-02 10:28N 44°30' E 029°35'0 0.0
2017-Dec-02 09:58N 44°30' E 029°35'0 0.0
2017-Dec-02 09:01N 44°30' E 029°35'0 0.1
2017-Dec-02 08:58N 44°30' E 029°35'0 0.0
2017-Dec-02 08:28N 44°30' E 029°35'0 0.0
2017-Dec-02 07:37N 44°30' E 029°35'0 0.7
2017-Dec-02 07:28N 44°30' E 029°35'1 3.1
2017-Dec-02 07:00N 44°31' E 029°34'1 2.0
2017-Dec-02 06:30N 44°32' E 029°33'0 0.0
2017-Dec-02 06:00N 44°32' E 029°33'14 5.1
2017-Dec-02 03:16N 44°25' E 029°15'4 7.4
2017-Dec-02 02:45N 44°23' E 029°12'2 7.5
2017-Dec-02 02:30N 44°21' E 029°10'4 7.4
2017-Dec-02 02:01N 44°19' E 029°06'4 7.3
2017-Dec-02 01:30N 44°16' E 029°02'4 7.4
2017-Dec-02 01:01N 44°14' E 028°59'4 7.2
2017-Dec-02 00:30N 44°11' E 028°55'4 7.2
2017-Dec-02 00:00N 44°08' E 028°52'4 7.1
2017-Dec-01 23:30N 44°06' E 028°48'3 6.8
2017-Dec-01 23:00N 44°06' E 028°44'3 6.6
2017-Dec-01 22:30N 44°08' E 028°41'2 3.8
2017-Dec-01 22:00N 44°10' E 028°39'0 0.3
2017-Dec-01 21:29N 44°10' E 028°39'0 0.0
2017-Dec-01 20:59N 44°10' E 028°39'0 0.0
2017-Dec-01 20:29N 44°10' E 028°39'0 0.0
2017-Dec-01 19:59N 44°10' E 028°39'0 0.0
2017-Dec-01 19:29N 44°10' E 028°39'0 0.0
2017-Dec-01 18:59N 44°10' E 028°39'0 0.0
2017-Dec-01 18:29N 44°10' E 028°39'0 0.0
2017-Dec-01 17:59N 44°10' E 028°39'0 0.0
2017-Dec-01 17:28N 44°10' E 028°39'  

Dump ship's entire track history